sensor_id;sensor_type;location;lat;lon;timestamp;temperature;humidity
43963;DHT22;29622;45.534;9.242;2023-04-24T00:02:15;18.60;48.50
43963;DHT22;29622;45.534;9.242;2023-04-24T00:07:15;18.50;49.00
43963;DHT22;29622;45.534;9.242;2023-04-24T00:12:17;18.50;48.90
43963;DHT22;29622;45.534;9.242;2023-04-24T00:17:17;18.40;49.10
43963;DHT22;29622;45.534;9.242;2023-04-24T00:22:21;18.30;49.40
43963;DHT22;29622;45.534;9.242;2023-04-24T00:27:23;18.30;49.70
43963;DHT22;29622;45.534;9.242;2023-04-24T00:32:24;18.50;49.50
43963;DHT22;29622;45.534;9.242;2023-04-24T00:37:24;18.30;49.30
43963;DHT22;29622;45.534;9.242;2023-04-24T00:42:25;18.10;49.80
43963;DHT22;29622;45.534;9.242;2023-04-24T00:47:26;18.10;50.30
43963;DHT22;29622;45.534;9.242;2023-04-24T00:52:29;18.00;50.40
43963;DHT22;29622;45.534;9.242;2023-04-24T00:57:31;17.90;50.70
43963;DHT22;29622;45.534;9.242;2023-04-24T01:02:32;17.80;51.00
43963;DHT22;29622;45.534;9.242;2023-04-24T01:07:34;17.70;51.10
43963;DHT22;29622;45.534;9.242;2023-04-24T01:12:36;17.60;51.30
43963;DHT22;29622;45.534;9.242;2023-04-24T01:17:37;17.60;51.70
43963;DHT22;29622;45.534;9.242;2023-04-24T01:22:39;17.60;51.70
43963;DHT22;29622;45.534;9.242;2023-04-24T01:27:41;17.70;51.90
43963;DHT22;29622;45.534;9.242;2023-04-24T01:32:42;17.80;52.10
43963;DHT22;29622;45.534;9.242;2023-04-24T01:37:44;18.20;51.90
43963;DHT22;29622;45.534;9.242;2023-04-24T01:42:45;18.30;51.60
43963;DHT22;29622;45.534;9.242;2023-04-24T01:47:46;18.20;51.70
43963;DHT22;29622;45.534;9.242;2023-04-24T01:52:47;18.20;52.00
43963;DHT22;29622;45.534;9.242;2023-04-24T01:57:50;18.40;51.60
43963;DHT22;29622;45.534;9.242;2023-04-24T02:02:53;18.40;51.20
43963;DHT22;29622;45.534;9.242;2023-04-24T02:07:54;18.40;51.50
43963;DHT22;29622;45.534;9.242;2023-04-24T02:12:54;18.30;51.50
43963;DHT22;29622;45.534;9.242;2023-04-24T02:17:58;18.50;51.60
43963;DHT22;29622;45.534;9.242;2023-04-24T02:22:58;18.80;51.10
43963;DHT22;29622;45.534;9.242;2023-04-24T02:27:59;18.70;51.00
43963;DHT22;29622;45.534;9.242;2023-04-24T02:33:00;18.60;51.10
43963;DHT22;29622;45.534;9.242;2023-04-24T02:38:01;18.50;51.20
43963;DHT22;29622;45.534;9.242;2023-04-24T02:43:03;18.40;51.50
43963;DHT22;29622;45.534;9.242;2023-04-24T02:48:04;18.30;51.60
43963;DHT22;29622;45.534;9.242;2023-04-24T02:53:05;18.20;51.70
43963;DHT22;29622;45.534;9.242;2023-04-24T02:58:05;18.00;51.90
43963;DHT22;29622;45.534;9.242;2023-04-24T03:03:06;17.80;52.30
43963;DHT22;29622;45.534;9.242;2023-04-24T03:08:07;17.70;52.70
43963;DHT22;29622;45.534;9.242;2023-04-24T03:13:08;17.60;52.70
43963;DHT22;29622;45.534;9.242;2023-04-24T03:18:08;17.50;52.80
43963;DHT22;29622;45.534;9.242;2023-04-24T03:23:10;17.40;53.00
43963;DHT22;29622;45.534;9.242;2023-04-24T03:28:12;17.40;53.10
43963;DHT22;29622;45.534;9.242;2023-04-24T03:33:16;17.30;53.20
43963;DHT22;29622;45.534;9.242;2023-04-24T03:38:27;17.20;53.30
43963;DHT22;29622;45.534;9.242;2023-04-24T03:43:28;17.00;53.60
43963;DHT22;29622;45.534;9.242;2023-04-24T03:48:31;16.80;53.80
43963;DHT22;29622;45.534;9.242;2023-04-24T03:53:32;16.70;54.20
43963;DHT22;29622;45.534;9.242;2023-04-24T03:58:33;16.50;54.40
43963;DHT22;29622;45.534;9.242;2023-04-24T04:03:34;16.40;54.50
43963;DHT22;29622;45.534;9.242;2023-04-24T04:08:35;16.40;54.70
43963;DHT22;29622;45.534;9.242;2023-04-24T04:13:36;16.30;54.80
43963;DHT22;29622;45.534;9.242;2023-04-24T04:18:37;16.30;54.90
43963;DHT22;29622;45.534;9.242;2023-04-24T04:23:40;16.20;54.90
43963;DHT22;29622;45.534;9.242;2023-04-24T04:28:50;16.20;55.00
43963;DHT22;29622;45.534;9.242;2023-04-24T04:33:51;16.20;55.00
43963;DHT22;29622;45.534;9.242;2023-04-24T04:38:52;16.10;55.10
43963;DHT22;29622;45.534;9.242;2023-04-24T04:44:17;16.00;55.10
43963;DHT22;29622;45.534;9.242;2023-04-24T04:49:18;15.90;55.10
43963;DHT22;29622;45.534;9.242;2023-04-24T04:54:22;15.90;55.30
43963;DHT22;29622;45.534;9.242;2023-04-24T04:59:22;16.00;55.30
43963;DHT22;29622;45.534;9.242;2023-04-24T05:04:28;16.10;55.10
43963;DHT22;29622;45.534;9.242;2023-04-24T05:09:29;16.00;55.00
43963;DHT22;29622;45.534;9.242;2023-04-24T05:14:35;15.90;55.00
43963;DHT22;29622;45.534;9.242;2023-04-24T05:19:36;15.80;55.00
43963;DHT22;29622;45.534;9.242;2023-04-24T05:24:39;15.80;55.10
43963;DHT22;29622;45.534;9.242;2023-04-24T05:29:40;15.70;55.70
43963;DHT22;29622;45.534;9.242;2023-04-24T05:34:42;15.70;55.20
43963;DHT22;29622;45.534;9.242;2023-04-24T05:39:43;15.80;55.30
43963;DHT22;29622;45.534;9.242;2023-04-24T05:44:44;15.80;55.50
43963;DHT22;29622;45.534;9.242;2023-04-24T05:49:44;15.80;55.60
43963;DHT22;29622;45.534;9.242;2023-04-24T05:54:45;15.90;55.60
43963;DHT22;29622;45.534;9.242;2023-04-24T05:59:50;15.90;55.60
43963;DHT22;29622;45.534;9.242;2023-04-24T06:04:53;16.00;55.60
43963;DHT22;29622;45.534;9.242;2023-04-24T06:09:54;16.20;55.50
43963;DHT22;29622;45.534;9.242;2023-04-24T06:14:56;16.20;55.40
43963;DHT22;29622;45.534;9.242;2023-04-24T06:20:04;16.30;55.50
43963;DHT22;29622;45.534;9.242;2023-04-24T06:25:06;16.50;55.40
43963;DHT22;29622;45.534;9.242;2023-04-24T06:30:08;16.60;55.10
43963;DHT22;29622;45.534;9.242;2023-04-24T06:35:09;16.70;55.00
43963;DHT22;29622;45.534;9.242;2023-04-24T06:40:10;17.00;54.70
43963;DHT22;29622;45.534;9.242;2023-04-24T06:45:11;17.10;54.40
43963;DHT22;29622;45.534;9.242;2023-04-24T06:50:12;17.10;54.20
43963;DHT22;29622;45.534;9.242;2023-04-24T06:55:13;17.20;53.90
43963;DHT22;29622;45.534;9.242;2023-04-24T07:00:15;17.20;53.80
43963;DHT22;29622;45.534;9.242;2023-04-24T07:05:16;17.30;53.70
43963;DHT22;29622;45.534;9.242;2023-04-24T07:10:20;17.60;53.50
43963;DHT22;29622;45.534;9.242;2023-04-24T07:15:22;17.80;53.40
43963;DHT22;29622;45.534;9.242;2023-04-24T07:20:23;18.30;52.80
43963;DHT22;29622;45.534;9.242;2023-04-24T07:25:24;18.50;52.20
43963;DHT22;29622;45.534;9.242;2023-04-24T07:30:25;18.70;51.80
43963;DHT22;29622;45.534;9.242;2023-04-24T07:35:26;18.80;51.40
43963;DHT22;29622;45.534;9.242;2023-04-24T07:40:27;18.90;51.00
43963;DHT22;29622;45.534;9.242;2023-04-24T07:45:28;18.80;50.70
43963;DHT22;29622;45.534;9.242;2023-04-24T07:50:29;18.80;50.70
43963;DHT22;29622;45.534;9.242;2023-04-24T07:55:30;18.80;50.70
43963;DHT22;29622;45.534;9.242;2023-04-24T08:00:31;18.70;50.50
43963;DHT22;29622;45.534;9.242;2023-04-24T08:05:31;18.60;50.50
43963;DHT22;29622;45.534;9.242;2023-04-24T08:10:32;18.40;50.40
43963;DHT22;29622;45.534;9.242;2023-04-24T08:15:33;18.30;50.40
43963;DHT22;29622;45.534;9.242;2023-04-24T08:20:36;18.40;50.40
43963;DHT22;29622;45.534;9.242;2023-04-24T08:25:37;18.40;50.10
43963;DHT22;29622;45.534;9.242;2023-04-24T08:30:38;18.40;49.90
43963;DHT22;29622;45.534;9.242;2023-04-24T08:35:38;18.50;49.60
43963;DHT22;29622;45.534;9.242;2023-04-24T08:40:39;18.60;49.10
43963;DHT22;29622;45.534;9.242;2023-04-24T08:45:40;18.50;49.20
43963;DHT22;29622;45.534;9.242;2023-04-24T08:50:41;18.60;49.30
43963;DHT22;29622;45.534;9.242;2023-04-24T08:55:46;18.80;49.40
43963;DHT22;29622;45.534;9.242;2023-04-24T09:00:47;19.10;49.20
43963;DHT22;29622;45.534;9.242;2023-04-24T09:05:49;19.10;48.90
43963;DHT22;29622;45.534;9.242;2023-04-24T09:10:50;19.10;48.80
43963;DHT22;29622;45.534;9.242;2023-04-24T09:15:51;19.20;48.50
43963;DHT22;29622;45.534;9.242;2023-04-24T09:26:02;19.40;48.20
43963;DHT22;29622;45.534;9.242;2023-04-24T09:31:15;19.50;47.90
43963;DHT22;29622;45.534;9.242;2023-04-24T09:36:18;19.40;47.50
43963;DHT22;29622;45.534;9.242;2023-04-24T09:41:19;19.40;47.80
43963;DHT22;29622;45.534;9.242;2023-04-24T09:46:20;19.50;47.40
43963;DHT22;29622;45.534;9.242;2023-04-24T09:51:35;19.50;47.10
43963;DHT22;29622;45.534;9.242;2023-04-24T09:56:43;19.50;46.80
43963;DHT22;29622;45.534;9.242;2023-04-24T10:01:45;19.50;46.90
43963;DHT22;29622;45.534;9.242;2023-04-24T10:06:47;19.70;46.80
43963;DHT22;29622;45.534;9.242;2023-04-24T10:11:51;19.90;46.70
43963;DHT22;29622;45.534;9.242;2023-04-24T10:16:54;20.00;46.40
43963;DHT22;29622;45.534;9.242;2023-04-24T10:21:57;20.10;46.20
43963;DHT22;29622;45.534;9.242;2023-04-24T10:27:00;20.10;46.20
43963;DHT22;29622;45.534;9.242;2023-04-24T10:32:01;20.20;46.10
43963;DHT22;29622;45.534;9.242;2023-04-24T10:37:02;20.20;46.30
43963;DHT22;29622;45.534;9.242;2023-04-24T10:42:16;20.40;46.50
43963;DHT22;29622;45.534;9.242;2023-04-24T10:47:16;20.50;46.10
43963;DHT22;29622;45.534;9.242;2023-04-24T10:52:17;20.50;45.70
43963;DHT22;29622;45.534;9.242;2023-04-24T11:02:36;20.40;45.00
43963;DHT22;29622;45.534;9.242;2023-04-24T11:08:15;20.50;44.70
43963;DHT22;29622;45.534;9.242;2023-04-24T11:13:21;20.50;44.30
43963;DHT22;29622;45.534;9.242;2023-04-24T11:18:22;20.60;44.20
43963;DHT22;29622;45.534;9.242;2023-04-24T11:23:23;20.60;43.90
43963;DHT22;29622;45.534;9.242;2023-04-24T11:28:24;20.70;43.60
43963;DHT22;29622;45.534;9.242;2023-04-24T11:33:25;20.70;43.30
43963;DHT22;29622;45.534;9.242;2023-04-24T11:38:26;20.70;43.50
43963;DHT22;29622;45.534;9.242;2023-04-24T11:43:28;20.80;43.40
43963;DHT22;29622;45.534;9.242;2023-04-24T11:48:34;20.90;43.60
43963;DHT22;29622;45.534;9.242;2023-04-24T11:53:36;21.10;43.60
43963;DHT22;29622;45.534;9.242;2023-04-24T11:58:38;21.20;43.10
43963;DHT22;29622;45.534;9.242;2023-04-24T12:03:39;21.30;42.80
43963;DHT22;29622;45.534;9.242;2023-04-24T12:08:46;21.40;42.50
43963;DHT22;29622;45.534;9.242;2023-04-24T12:13:48;21.60;42.30
43963;DHT22;29622;45.534;9.242;2023-04-24T12:18:51;21.70;42.20
43963;DHT22;29622;45.534;9.242;2023-04-24T12:23:54;21.90;42.00
43963;DHT22;29622;45.534;9.242;2023-04-24T12:28:55;22.00;42.10
43963;DHT22;29622;45.534;9.242;2023-04-24T12:34:01;22.10;42.00
43963;DHT22;29622;45.534;9.242;2023-04-24T12:39:02;22.30;41.80
43963;DHT22;29622;45.534;9.242;2023-04-24T12:44:02;22.40;41.90
43963;DHT22;29622;45.534;9.242;2023-04-24T12:49:03;22.50;41.00
43963;DHT22;29622;45.534;9.242;2023-04-24T12:54:04;22.50;40.20
43963;DHT22;29622;45.534;9.242;2023-04-24T12:59:05;22.50;40.30
43963;DHT22;29622;45.534;9.242;2023-04-24T13:04:05;22.60;40.00
43963;DHT22;29622;45.534;9.242;2023-04-24T13:09:06;22.70;39.60
43963;DHT22;29622;45.534;9.242;2023-04-24T13:14:07;22.80;39.60
43963;DHT22;29622;45.534;9.242;2023-04-24T13:19:08;22.90;39.60
43963;DHT22;29622;45.534;9.242;2023-04-24T13:24:09;23.10;39.30
43963;DHT22;29622;45.534;9.242;2023-04-24T13:29:10;23.30;38.90
43963;DHT22;29622;45.534;9.242;2023-04-24T13:34:11;23.30;38.30
43963;DHT22;29622;45.534;9.242;2023-04-24T13:39:12;23.30;37.90
43963;DHT22;29622;45.534;9.242;2023-04-24T13:44:12;23.40;37.80
43963;DHT22;29622;45.534;9.242;2023-04-24T13:49:14;23.50;37.10
43963;DHT22;29622;45.534;9.242;2023-04-24T13:54:15;23.60;36.60
43963;DHT22;29622;45.534;9.242;2023-04-24T13:59:15;23.60;35.70
43963;DHT22;29622;45.534;9.242;2023-04-24T14:04:16;23.80;35.20
43963;DHT22;29622;45.534;9.242;2023-04-24T14:09:17;23.90;34.60
43963;DHT22;29622;45.534;9.242;2023-04-24T14:14:17;24.00;34.40
43963;DHT22;29622;45.534;9.242;2023-04-24T14:19:18;24.10;35.20
43963;DHT22;29622;45.534;9.242;2023-04-24T14:24:19;24.30;35.20
43963;DHT22;29622;45.534;9.242;2023-04-24T14:29:19;24.30;34.40
43963;DHT22;29622;45.534;9.242;2023-04-24T14:34:20;24.40;33.70
43963;DHT22;29622;45.534;9.242;2023-04-24T14:39:21;24.50;32.70
43963;DHT22;29622;45.534;9.242;2023-04-24T14:44:21;24.40;31.90
43963;DHT22;29622;45.534;9.242;2023-04-24T14:49:23;24.40;31.90
43963;DHT22;29622;45.534;9.242;2023-04-24T14:54:23;24.60;32.20
43963;DHT22;29622;45.534;9.242;2023-04-24T14:59:25;24.70;33.00
43963;DHT22;29622;45.534;9.242;2023-04-24T15:04:26;24.70;32.70
43963;DHT22;29622;45.534;9.242;2023-04-24T15:09:27;24.90;33.20
43963;DHT22;29622;45.534;9.242;2023-04-24T15:14:28;25.00;32.40
43963;DHT22;29622;45.534;9.242;2023-04-24T15:19:30;25.10;30.90
43963;DHT22;29622;45.534;9.242;2023-04-24T15:24:31;25.10;30.00
43963;DHT22;29622;45.534;9.242;2023-04-24T15:29:31;25.30;30.50
43963;DHT22;29622;45.534;9.242;2023-04-24T15:34:32;25.50;30.70
43963;DHT22;29622;45.534;9.242;2023-04-24T15:39:33;25.80;30.50
43963;DHT22;29622;45.534;9.242;2023-04-24T15:44:33;25.90;30.00
43963;DHT22;29622;45.534;9.242;2023-04-24T15:49:34;26.10;29.50
43963;DHT22;29622;45.534;9.242;2023-04-24T15:54:35;26.20;29.10
43963;DHT22;29622;45.534;9.242;2023-04-24T15:59:35;26.30;29.20
43963;DHT22;29622;45.534;9.242;2023-04-24T16:04:36;26.30;29.10
43963;DHT22;29622;45.534;9.242;2023-04-24T16:09:37;26.40;29.80
43963;DHT22;29622;45.534;9.242;2023-04-24T16:14:38;26.50;29.50
43963;DHT22;29622;45.534;9.242;2023-04-24T16:19:38;26.50;29.20
43963;DHT22;29622;45.534;9.242;2023-04-24T16:24:39;26.50;29.20
43963;DHT22;29622;45.534;9.242;2023-04-24T16:29:40;26.50;29.00
43963;DHT22;29622;45.534;9.242;2023-04-24T16:34:41;26.50;29.00
43963;DHT22;29622;45.534;9.242;2023-04-24T16:39:41;26.40;29.00
43963;DHT22;29622;45.534;9.242;2023-04-24T16:44:44;26.40;29.20
43963;DHT22;29622;45.534;9.242;2023-04-24T16:49:45;26.10;29.20
43963;DHT22;29622;45.534;9.242;2023-04-24T16:54:45;26.00;29.10
43963;DHT22;29622;45.534;9.242;2023-04-24T16:59:46;25.90;29.00
43963;DHT22;29622;45.534;9.242;2023-04-24T17:04:47;25.70;28.80
43963;DHT22;29622;45.534;9.242;2023-04-24T17:09:47;25.50;28.40
43963;DHT22;29622;45.534;9.242;2023-04-24T17:14:48;25.40;28.50
43963;DHT22;29622;45.534;9.242;2023-04-24T17:19:48;25.40;28.80
43963;DHT22;29622;45.534;9.242;2023-04-24T17:24:50;25.40;28.80
43963;DHT22;29622;45.534;9.242;2023-04-24T17:29:51;25.40;29.00
43963;DHT22;29622;45.534;9.242;2023-04-24T17:34:52;25.40;28.90
43963;DHT22;29622;45.534;9.242;2023-04-24T17:39:52;25.40;28.80
43963;DHT22;29622;45.534;9.242;2023-04-24T17:44:53;25.30;28.80
43963;DHT22;29622;45.534;9.242;2023-04-24T17:49:54;25.20;28.90
43963;DHT22;29622;45.534;9.242;2023-04-24T17:54:54;25.10;28.80
43963;DHT22;29622;45.534;9.242;2023-04-24T17:59:55;25.00;29.30
43963;DHT22;29622;45.534;9.242;2023-04-24T18:04:56;24.90;29.70
43963;DHT22;29622;45.534;9.242;2023-04-24T18:09:57;24.80;29.60
43963;DHT22;29622;45.534;9.242;2023-04-24T18:14:57;24.70;29.70
43963;DHT22;29622;45.534;9.242;2023-04-24T18:19:58;24.50;29.60
43963;DHT22;29622;45.534;9.242;2023-04-24T18:24:59;24.40;29.50
43963;DHT22;29622;45.534;9.242;2023-04-24T18:30:00;24.20;29.70
43963;DHT22;29622;45.534;9.242;2023-04-24T18:35:02;24.10;29.80
43963;DHT22;29622;45.534;9.242;2023-04-24T18:40:03;23.90;29.70
43963;DHT22;29622;45.534;9.242;2023-04-24T18:45:05;23.80;29.90
43963;DHT22;29622;45.534;9.242;2023-04-24T18:50:06;23.70;30.00
43963;DHT22;29622;45.534;9.242;2023-04-24T18:55:07;23.60;30.00
43963;DHT22;29622;45.534;9.242;2023-04-24T19:00:09;23.30;30.20
43963;DHT22;29622;45.534;9.242;2023-04-24T19:05:10;23.10;30.40
43963;DHT22;29622;45.534;9.242;2023-04-24T19:10:11;23.00;30.90
43963;DHT22;29622;45.534;9.242;2023-04-24T19:15:12;22.90;30.90
43963;DHT22;29622;45.534;9.242;2023-04-24T19:20:13;22.80;31.10
43963;DHT22;29622;45.534;9.242;2023-04-24T19:25:13;22.60;31.20
43963;DHT22;29622;45.534;9.242;2023-04-24T19:30:15;22.50;31.60
43963;DHT22;29622;45.534;9.242;2023-04-24T19:35:16;22.40;31.60
43963;DHT22;29622;45.534;9.242;2023-04-24T19:40:17;22.20;31.80
43963;DHT22;29622;45.534;9.242;2023-04-24T19:45:17;22.10;32.00
43963;DHT22;29622;45.534;9.242;2023-04-24T19:50:18;22.00;32.20
43963;DHT22;29622;45.534;9.242;2023-04-24T19:55:19;21.90;32.50
43963;DHT22;29622;45.534;9.242;2023-04-24T20:00:20;21.80;32.50
43963;DHT22;29622;45.534;9.242;2023-04-24T20:05:21;21.70;32.50
43963;DHT22;29622;45.534;9.242;2023-04-24T20:10:22;21.70;32.50
43963;DHT22;29622;45.534;9.242;2023-04-24T20:15:22;21.60;32.40
43963;DHT22;29622;45.534;9.242;2023-04-24T20:20:26;21.50;32.50
43963;DHT22;29622;45.534;9.242;2023-04-24T20:25:27;21.40;32.70
43963;DHT22;29622;45.534;9.242;2023-04-24T20:30:28;21.40;32.80
43963;DHT22;29622;45.534;9.242;2023-04-24T20:35:28;21.30;32.80
43963;DHT22;29622;45.534;9.242;2023-04-24T20:40:29;21.20;32.80
43963;DHT22;29622;45.534;9.242;2023-04-24T20:45:30;21.20;32.80
43963;DHT22;29622;45.534;9.242;2023-04-24T20:50:31;21.10;33.00
43963;DHT22;29622;45.534;9.242;2023-04-24T20:55:33;21.00;33.00
43963;DHT22;29622;45.534;9.242;2023-04-24T21:00:34;21.00;33.50
43963;DHT22;29622;45.534;9.242;2023-04-24T21:05:35;21.30;34.50
43963;DHT22;29622;45.534;9.242;2023-04-24T21:10:36;21.50;34.90
43963;DHT22;29622;45.534;9.242;2023-04-24T21:15:36;21.50;34.60
43963;DHT22;29622;45.534;9.242;2023-04-24T21:20:37;21.60;35.00
43963;DHT22;29622;45.534;9.242;2023-04-24T21:25:38;21.60;35.50
43963;DHT22;29622;45.534;9.242;2023-04-24T21:30:39;21.70;36.10
43963;DHT22;29622;45.534;9.242;2023-04-24T21:35:39;21.80;36.30
43963;DHT22;29622;45.534;9.242;2023-04-24T21:40:40;21.70;36.80
43963;DHT22;29622;45.534;9.242;2023-04-24T21:45:41;21.70;37.20
43963;DHT22;29622;45.534;9.242;2023-04-24T21:50:42;21.60;37.60
43963;DHT22;29622;45.534;9.242;2023-04-24T21:55:43;21.60;38.10
43963;DHT22;29622;45.534;9.242;2023-04-24T22:00:45;21.60;38.40
43963;DHT22;29622;45.534;9.242;2023-04-24T22:05:46;21.80;38.50
43963;DHT22;29622;45.534;9.242;2023-04-24T22:10:47;21.90;38.60
43963;DHT22;29622;45.534;9.242;2023-04-24T22:15:49;22.00;38.80
43963;DHT22;29622;45.534;9.242;2023-04-24T22:20:50;22.00;38.90
43963;DHT22;29622;45.534;9.242;2023-04-24T22:25:51;22.10;38.90
43963;DHT22;29622;45.534;9.242;2023-04-24T22:30:53;22.10;39.00
43963;DHT22;29622;45.534;9.242;2023-04-24T22:35:54;22.00;39.10
43963;DHT22;29622;45.534;9.242;2023-04-24T22:40:55;22.10;39.60
43963;DHT22;29622;45.534;9.242;2023-04-24T22:45:56;22.00;39.20
43963;DHT22;29622;45.534;9.242;2023-04-24T22:50:56;21.80;39.60
43963;DHT22;29622;45.534;9.242;2023-04-24T22:55:57;21.70;39.60
43963;DHT22;29622;45.534;9.242;2023-04-24T23:00:58;21.70;39.70
43963;DHT22;29622;45.534;9.242;2023-04-24T23:05:59;21.60;39.80
43963;DHT22;29622;45.534;9.242;2023-04-24T23:11:00;21.40;40.00
43963;DHT22;29622;45.534;9.242;2023-04-24T23:16:00;21.20;40.20
43963;DHT22;29622;45.534;9.242;2023-04-24T23:21:01;21.30;40.30
43963;DHT22;29622;45.534;9.242;2023-04-24T23:26:03;21.20;40.60
43963;DHT22;29622;45.534;9.242;2023-04-24T23:31:03;20.90;40.20
43963;DHT22;29622;45.534;9.242;2023-04-24T23:36:04;20.70;40.50
43963;DHT22;29622;45.534;9.242;2023-04-24T23:41:05;20.60;40.80
43963;DHT22;29622;45.534;9.242;2023-04-24T23:46:06;20.60;41.00
43963;DHT22;29622;45.534;9.242;2023-04-24T23:51:07;20.50;41.00
43963;DHT22;29622;45.534;9.242;2023-04-24T23:56:07;20.40;41.00
